sensor_id;sensor_type;location;lat;lon;timestamp;P1;durP1;ratioP1;P2;durP2;ratioP2
77984;SDS011;67177;47.240;-1.546;2023-04-24T06:51:08;5.85;;;2.05;;
77984;SDS011;67177;47.240;-1.546;2023-04-24T06:53:34;5.20;;;2.00;;
77984;SDS011;67177;47.240;-1.546;2023-04-24T06:56:00;6.35;;;1.92;;
77984;SDS011;67177;47.240;-1.546;2023-04-24T06:58:26;4.87;;;1.60;;
77984;SDS011;67177;47.240;-1.546;2023-04-24T07:00:51;6.18;;;1.80;;
77984;SDS011;67177;47.240;-1.546;2023-04-24T07:03:17;5.70;;;1.97;;
77984;SDS011;67177;47.240;-1.546;2023-04-24T07:05:43;6.38;;;2.10;;
77984;SDS011;67177;47.240;-1.546;2023-04-24T07:08:08;5.50;;;1.77;;
77984;SDS011;67177;47.240;-1.546;2023-04-24T07:10:36;4.50;;;1.90;;
77984;SDS011;67177;47.240;-1.546;2023-04-24T07:13:02;5.63;;;2.00;;
77984;SDS011;67177;47.240;-1.546;2023-04-24T07:15:27;5.90;;;1.80;;
77984;SDS011;67177;47.240;-1.546;2023-04-24T07:17:53;5.10;;;1.80;;
77984;SDS011;67177;47.240;-1.546;2023-04-24T07:20:19;5.00;;;1.73;;
77984;SDS011;67177;47.240;-1.546;2023-04-24T07:22:44;4.82;;;1.63;;
77984;SDS011;67177;47.240;-1.546;2023-04-24T07:25:10;7.67;;;1.90;;
77984;SDS011;67177;47.240;-1.546;2023-04-24T07:27:36;6.55;;;1.70;;
77984;SDS011;67177;47.240;-1.546;2023-04-24T07:30:02;6.73;;;1.90;;
77984;SDS011;67177;47.240;-1.546;2023-04-24T07:32:29;6.28;;;1.90;;
77984;SDS011;67177;47.240;-1.546;2023-04-24T07:34:55;5.63;;;2.13;;
77984;SDS011;67177;47.240;-1.546;2023-04-24T07:37:20;5.60;;;2.03;;
77984;SDS011;67177;47.240;-1.546;2023-04-24T07:39:46;5.95;;;2.10;;
77984;SDS011;67177;47.240;-1.546;2023-04-24T07:42:12;6.27;;;2.00;;
77984;SDS011;67177;47.240;-1.546;2023-04-24T07:44:37;5.28;;;2.20;;
77984;SDS011;67177;47.240;-1.546;2023-04-24T07:47:03;6.27;;;2.13;;
77984;SDS011;67177;47.240;-1.546;2023-04-24T07:49:29;8.45;;;2.05;;
77984;SDS011;67177;47.240;-1.546;2023-04-24T07:51:54;7.03;;;2.80;;
77984;SDS011;67177;47.240;-1.546;2023-04-24T07:54:20;8.27;;;3.00;;
77984;SDS011;67177;47.240;-1.546;2023-04-24T07:56:46;7.05;;;2.72;;
77984;SDS011;67177;47.240;-1.546;2023-04-24T07:59:11;5.67;;;1.90;;
77984;SDS011;67177;47.240;-1.546;2023-04-24T08:01:37;5.85;;;2.20;;
77984;SDS011;67177;47.240;-1.546;2023-04-24T08:04:03;5.70;;;2.00;;
77984;SDS011;67177;47.240;-1.546;2023-04-24T08:06:29;4.93;;;1.92;;
77984;SDS011;67177;47.240;-1.546;2023-04-24T08:08:59;6.40;;;2.00;;
77984;SDS011;67177;47.240;-1.546;2023-04-24T08:11:25;6.57;;;2.17;;
77984;SDS011;67177;47.240;-1.546;2023-04-24T08:13:51;6.47;;;1.73;;
77984;SDS011;67177;47.240;-1.546;2023-04-24T08:16:17;5.57;;;1.73;;
77984;SDS011;67177;47.240;-1.546;2023-04-24T08:18:42;5.07;;;1.93;;
77984;SDS011;67177;47.240;-1.546;2023-04-24T08:21:08;4.88;;;1.70;;
77984;SDS011;67177;47.240;-1.546;2023-04-24T08:23:34;4.80;;;1.70;;
77984;SDS011;67177;47.240;-1.546;2023-04-24T08:25:59;6.32;;;1.98;;
77984;SDS011;67177;47.240;-1.546;2023-04-24T08:28:25;6.20;;;1.93;;
77984;SDS011;67177;47.240;-1.546;2023-04-24T08:30:51;4.88;;;1.60;;
77984;SDS011;67177;47.240;-1.546;2023-04-24T08:33:23;5.38;;;1.55;;
77984;SDS011;67177;47.240;-1.546;2023-04-24T08:35:49;6.07;;;1.83;;
77984;SDS011;67177;47.240;-1.546;2023-04-24T08:38:15;5.85;;;1.88;;
77984;SDS011;67177;47.240;-1.546;2023-04-24T08:40:41;7.47;;;2.20;;
77984;SDS011;67177;47.240;-1.546;2023-04-24T08:43:08;7.77;;;2.40;;
77984;SDS011;67177;47.240;-1.546;2023-04-24T08:45:35;6.00;;;2.00;;
77984;SDS011;67177;47.240;-1.546;2023-04-24T08:48:01;6.15;;;2.03;;
77984;SDS011;67177;47.240;-1.546;2023-04-24T08:50:29;6.15;;;1.80;;
77984;SDS011;67177;47.240;-1.546;2023-04-24T08:52:56;5.85;;;1.80;;
77984;SDS011;67177;47.240;-1.546;2023-04-24T08:55:22;7.07;;;2.17;;
77984;SDS011;67177;47.240;-1.546;2023-04-24T08:57:51;5.25;;;1.70;;
77984;SDS011;67177;47.240;-1.546;2023-04-24T09:00:18;7.15;;;2.30;;
77984;SDS011;67177;47.240;-1.546;2023-04-24T09:02:46;5.53;;;1.80;;
77984;SDS011;67177;47.240;-1.546;2023-04-24T09:05:14;6.10;;;2.00;;
77984;SDS011;67177;47.240;-1.546;2023-04-24T09:07:43;5.87;;;1.70;;
77984;SDS011;67177;47.240;-1.546;2023-04-24T09:10:11;4.60;;;1.58;;
77984;SDS011;67177;47.240;-1.546;2023-04-24T09:12:37;5.05;;;1.70;;
77984;SDS011;67177;47.240;-1.546;2023-04-24T09:15:03;7.53;;;2.10;;
77984;SDS011;67177;47.240;-1.546;2023-04-24T09:17:32;6.57;;;1.73;;
77984;SDS011;67177;47.240;-1.546;2023-04-24T09:19:59;5.85;;;1.88;;
77984;SDS011;67177;47.240;-1.546;2023-04-24T09:22:24;4.60;;;1.58;;
77984;SDS011;67177;47.240;-1.546;2023-04-24T09:25:01;6.13;;;1.93;;
77984;SDS011;67177;47.240;-1.546;2023-04-24T09:27:32;5.05;;;1.73;;
77984;SDS011;67177;47.240;-1.546;2023-04-24T09:29:59;4.93;;;1.70;;
77984;SDS011;67177;47.240;-1.546;2023-04-24T09:32:26;5.63;;;1.75;;
77984;SDS011;67177;47.240;-1.546;2023-04-24T09:35:09;6.05;;;1.70;;
77984;SDS011;67177;47.240;-1.546;2023-04-24T09:37:40;6.13;;;1.70;;
77984;SDS011;67177;47.240;-1.546;2023-04-24T09:40:11;5.57;;;1.80;;
77984;SDS011;67177;47.240;-1.546;2023-04-24T09:42:37;6.53;;;1.83;;
77984;SDS011;67177;47.240;-1.546;2023-04-24T09:45:03;4.60;;;1.52;;
77984;SDS011;67177;47.240;-1.546;2023-04-24T09:47:36;4.60;;;1.57;;
77984;SDS011;67177;47.240;-1.546;2023-04-24T09:50:09;5.75;;;1.70;;
77984;SDS011;67177;47.240;-1.546;2023-04-24T09:52:39;6.43;;;1.83;;
77984;SDS011;67177;47.240;-1.546;2023-04-24T09:55:16;5.55;;;1.45;;
77984;SDS011;67177;47.240;-1.546;2023-04-24T09:57:47;4.45;;;1.15;;
77984;SDS011;67177;47.240;-1.546;2023-04-24T10:02:54;5.82;;;1.33;;
77984;SDS011;67177;47.240;-1.546;2023-04-24T10:05:25;7.93;;;1.83;;
77984;SDS011;67177;47.240;-1.546;2023-04-24T10:10:28;6.10;;;1.60;;
77984;SDS011;67177;47.240;-1.546;2023-04-24T10:12:54;5.60;;;1.30;;
77984;SDS011;67177;47.240;-1.546;2023-04-24T10:15:20;6.68;;;1.58;;
77984;SDS011;67177;47.240;-1.546;2023-04-24T10:17:49;5.88;;;1.55;;
77984;SDS011;67177;47.240;-1.546;2023-04-24T10:20:22;6.30;;;1.45;;
77984;SDS011;67177;47.240;-1.546;2023-04-24T10:22:50;4.32;;;1.40;;
77984;SDS011;67177;47.240;-1.546;2023-04-24T10:25:19;5.13;;;1.47;;
77984;SDS011;67177;47.240;-1.546;2023-04-24T10:27:46;8.57;;;1.50;;
77984;SDS011;67177;47.240;-1.546;2023-04-24T10:30:13;7.07;;;1.63;;
77984;SDS011;67177;47.240;-1.546;2023-04-24T10:32:39;6.50;;;1.60;;
77984;SDS011;67177;47.240;-1.546;2023-04-24T10:35:09;5.87;;;1.73;;
77984;SDS011;67177;47.240;-1.546;2023-04-24T10:37:37;8.90;;;1.98;;
77984;SDS011;67177;47.240;-1.546;2023-04-24T10:40:06;6.22;;;1.60;;
77984;SDS011;67177;47.240;-1.546;2023-04-24T10:42:33;8.98;;;1.80;;
77984;SDS011;67177;47.240;-1.546;2023-04-24T10:44:59;6.83;;;1.57;;
77984;SDS011;67177;47.240;-1.546;2023-04-24T10:47:29;6.05;;;1.40;;
77984;SDS011;67177;47.240;-1.546;2023-04-24T10:50:07;5.20;;;1.48;;
77984;SDS011;67177;47.240;-1.546;2023-04-24T10:52:45;7.75;;;1.83;;
77984;SDS011;67177;47.240;-1.546;2023-04-24T10:55:39;6.03;;;1.70;;
77984;SDS011;67177;47.240;-1.546;2023-04-24T10:58:06;4.30;;;1.40;;
77984;SDS011;67177;47.240;-1.546;2023-04-24T11:00:32;4.28;;;1.30;;
77984;SDS011;67177;47.240;-1.546;2023-04-24T11:03:01;4.95;;;1.55;;
77984;SDS011;67177;47.240;-1.546;2023-04-24T11:05:50;5.07;;;1.40;;
77984;SDS011;67177;47.240;-1.546;2023-04-24T11:17:04;6.22;;;1.90;;
77984;SDS011;67177;47.240;-1.546;2023-04-24T11:19:09;5.63;;;1.63;;
77984;SDS011;67177;47.240;-1.546;2023-04-24T11:21:45;7.63;;;1.70;;
77984;SDS011;67177;47.240;-1.546;2023-04-24T11:29:39;7.73;;;1.87;;
77984;SDS011;67177;47.240;-1.546;2023-04-24T11:32:18;5.60;;;1.50;;
77984;SDS011;67177;47.240;-1.546;2023-04-24T11:34:57;4.90;;;1.40;;
77984;SDS011;67177;47.240;-1.546;2023-04-24T11:37:29;5.53;;;1.80;;
77984;SDS011;67177;47.240;-1.546;2023-04-24T11:40:01;6.65;;;1.50;;
77984;SDS011;67177;47.240;-1.546;2023-04-24T11:42:29;8.75;;;1.88;;
77984;SDS011;67177;47.240;-1.546;2023-04-24T11:45:06;5.78;;;1.77;;
77984;SDS011;67177;47.240;-1.546;2023-04-24T11:47:33;6.65;;;1.98;;
77984;SDS011;67177;47.240;-1.546;2023-04-24T11:49:59;6.93;;;2.10;;
77984;SDS011;67177;47.240;-1.546;2023-04-24T11:52:25;6.65;;;1.67;;
77984;SDS011;67177;47.240;-1.546;2023-04-24T11:54:52;6.00;;;1.60;;
77984;SDS011;67177;47.240;-1.546;2023-04-24T11:57:23;5.20;;;1.90;;
77984;SDS011;67177;47.240;-1.546;2023-04-24T11:59:52;4.68;;;1.48;;
77984;SDS011;67177;47.240;-1.546;2023-04-24T12:02:19;6.10;;;1.67;;
77984;SDS011;67177;47.240;-1.546;2023-04-24T12:04:46;6.65;;;1.67;;
77984;SDS011;67177;47.240;-1.546;2023-04-24T12:07:12;6.53;;;2.00;;
77984;SDS011;67177;47.240;-1.546;2023-04-24T12:09:47;6.30;;;1.80;;
77984;SDS011;67177;47.240;-1.546;2023-04-24T12:12:15;5.82;;;1.70;;
77984;SDS011;67177;47.240;-1.546;2023-04-24T12:14:49;9.45;;;2.20;;
77984;SDS011;67177;47.240;-1.546;2023-04-24T12:17:17;5.93;;;1.88;;
77984;SDS011;67177;47.240;-1.546;2023-04-24T12:19:48;7.47;;;1.80;;
77984;SDS011;67177;47.240;-1.546;2023-04-24T12:22:15;5.90;;;1.90;;
77984;SDS011;67177;47.240;-1.546;2023-04-24T12:25:00;8.63;;;2.05;;
77984;SDS011;67177;47.240;-1.546;2023-04-24T12:27:33;9.15;;;2.30;;
77984;SDS011;67177;47.240;-1.546;2023-04-24T12:29:59;7.95;;;2.40;;
77984;SDS011;67177;47.240;-1.546;2023-04-24T12:32:26;6.80;;;1.80;;
77984;SDS011;67177;47.240;-1.546;2023-04-24T12:34:52;7.60;;;2.25;;
77984;SDS011;67177;47.240;-1.546;2023-04-24T12:37:18;6.63;;;1.77;;
77984;SDS011;67177;47.240;-1.546;2023-04-24T12:42:32;9.30;;;2.20;;
77984;SDS011;67177;47.240;-1.546;2023-04-24T12:45:03;8.10;;;1.98;;
77984;SDS011;67177;47.240;-1.546;2023-04-24T12:47:31;6.85;;;1.90;;
77984;SDS011;67177;47.240;-1.546;2023-04-24T12:49:58;7.68;;;2.40;;
77984;SDS011;67177;47.240;-1.546;2023-04-24T12:52:24;8.70;;;2.10;;
77984;SDS011;67177;47.240;-1.546;2023-04-24T12:54:55;7.43;;;1.87;;
77984;SDS011;67177;47.240;-1.546;2023-04-24T12:57:25;8.80;;;2.20;;
77984;SDS011;67177;47.240;-1.546;2023-04-24T12:59:54;6.75;;;1.92;;
77984;SDS011;67177;47.240;-1.546;2023-04-24T13:02:21;6.57;;;1.90;;
77984;SDS011;67177;47.240;-1.546;2023-04-24T13:04:47;6.55;;;2.00;;
77984;SDS011;67177;47.240;-1.546;2023-04-24T13:07:14;8.47;;;2.20;;
77984;SDS011;67177;47.240;-1.546;2023-04-24T13:09:40;7.30;;;2.03;;
77984;SDS011;67177;47.240;-1.546;2023-04-24T13:12:10;6.75;;;2.10;;
77984;SDS011;67177;47.240;-1.546;2023-04-24T13:14:36;8.23;;;1.90;;
77984;SDS011;67177;47.240;-1.546;2023-04-24T13:17:03;8.18;;;2.25;;
77984;SDS011;67177;47.240;-1.546;2023-04-24T13:19:29;6.87;;;1.90;;
77984;SDS011;67177;47.240;-1.546;2023-04-24T13:22:00;6.28;;;1.80;;
77984;SDS011;67177;47.240;-1.546;2023-04-24T13:24:26;5.57;;;1.60;;
77984;SDS011;67177;47.240;-1.546;2023-04-24T13:26:51;8.03;;;1.80;;
77984;SDS011;67177;47.240;-1.546;2023-04-24T13:29:17;5.43;;;1.60;;
77984;SDS011;67177;47.240;-1.546;2023-04-24T13:31:43;5.70;;;1.58;;
77984;SDS011;67177;47.240;-1.546;2023-04-24T13:34:09;7.05;;;1.80;;
77984;SDS011;67177;47.240;-1.546;2023-04-24T13:36:35;6.07;;;1.73;;
77984;SDS011;67177;47.240;-1.546;2023-04-24T13:39:01;7.60;;;1.88;;
77984;SDS011;67177;47.240;-1.546;2023-04-24T13:41:29;6.43;;;1.67;;
77984;SDS011;67177;47.240;-1.546;2023-04-24T13:43:55;5.55;;;1.48;;
77984;SDS011;67177;47.240;-1.546;2023-04-24T13:46:21;6.55;;;1.70;;
77984;SDS011;67177;47.240;-1.546;2023-04-24T13:48:47;5.37;;;1.63;;
77984;SDS011;67177;47.240;-1.546;2023-04-24T13:51:12;6.15;;;1.50;;
77984;SDS011;67177;47.240;-1.546;2023-04-24T13:53:38;6.97;;;1.50;;
77984;SDS011;67177;47.240;-1.546;2023-04-24T13:56:04;5.43;;;1.50;;
77984;SDS011;67177;47.240;-1.546;2023-04-24T13:58:30;5.22;;;1.60;;
77984;SDS011;67177;47.240;-1.546;2023-04-24T14:00:57;5.10;;;1.23;;
77984;SDS011;67177;47.240;-1.546;2023-04-24T14:03:23;6.40;;;1.35;;
77984;SDS011;67177;47.240;-1.546;2023-04-24T14:05:48;4.63;;;1.30;;
77984;SDS011;67177;47.240;-1.546;2023-04-24T14:08:14;4.53;;;1.30;;
77984;SDS011;67177;47.240;-1.546;2023-04-24T14:10:39;6.80;;;1.52;;
77984;SDS011;67177;47.240;-1.546;2023-04-24T14:13:05;5.90;;;1.50;;
77984;SDS011;67177;47.240;-1.546;2023-04-24T14:15:31;5.50;;;1.45;;
77984;SDS011;67177;47.240;-1.546;2023-04-24T14:17:57;6.50;;;1.50;;
77984;SDS011;67177;47.240;-1.546;2023-04-24T14:20:22;4.53;;;1.25;;
77984;SDS011;67177;47.240;-1.546;2023-04-24T14:22:48;7.00;;;1.83;;
77984;SDS011;67177;47.240;-1.546;2023-04-24T14:25:14;6.05;;;1.70;;
77984;SDS011;67177;47.240;-1.546;2023-04-24T14:27:40;6.97;;;2.08;;
77984;SDS011;67177;47.240;-1.546;2023-04-24T14:30:06;6.80;;;1.57;;
77984;SDS011;67177;47.240;-1.546;2023-04-24T14:32:32;5.90;;;1.60;;
77984;SDS011;67177;47.240;-1.546;2023-04-24T14:34:58;6.53;;;1.40;;
77984;SDS011;67177;47.240;-1.546;2023-04-24T14:37:23;4.90;;;1.50;;
77984;SDS011;67177;47.240;-1.546;2023-04-24T14:39:49;5.78;;;1.58;;
77984;SDS011;67177;47.240;-1.546;2023-04-24T14:42:15;5.85;;;1.75;;
77984;SDS011;67177;47.240;-1.546;2023-04-24T14:44:42;5.55;;;1.40;;
77984;SDS011;67177;47.240;-1.546;2023-04-24T14:47:07;5.03;;;1.37;;
77984;SDS011;67177;47.240;-1.546;2023-04-24T14:49:33;6.30;;;1.80;;
77984;SDS011;67177;47.240;-1.546;2023-04-24T14:51:59;4.57;;;1.27;;
77984;SDS011;67177;47.240;-1.546;2023-04-24T14:54:24;6.10;;;1.58;;
77984;SDS011;67177;47.240;-1.546;2023-04-24T14:56:50;6.23;;;1.50;;
77984;SDS011;67177;47.240;-1.546;2023-04-24T14:59:16;6.22;;;1.40;;
77984;SDS011;67177;47.240;-1.546;2023-04-24T15:01:42;5.23;;;1.40;;
77984;SDS011;67177;47.240;-1.546;2023-04-24T15:04:07;5.80;;;1.50;;
77984;SDS011;67177;47.240;-1.546;2023-04-24T15:06:33;5.50;;;1.30;;
77984;SDS011;67177;47.240;-1.546;2023-04-24T15:08:59;4.67;;;1.33;;
77984;SDS011;67177;47.240;-1.546;2023-04-24T15:11:24;5.25;;;1.50;;
77984;SDS011;67177;47.240;-1.546;2023-04-24T15:13:51;7.68;;;1.70;;
77984;SDS011;67177;47.240;-1.546;2023-04-24T15:16:16;7.80;;;1.70;;
77984;SDS011;67177;47.240;-1.546;2023-04-24T15:18:42;6.05;;;1.60;;
77984;SDS011;67177;47.240;-1.546;2023-04-24T15:21:08;5.60;;;1.60;;
77984;SDS011;67177;47.240;-1.546;2023-04-24T15:23:33;5.53;;;1.38;;
77984;SDS011;67177;47.240;-1.546;2023-04-24T15:25:59;5.72;;;1.50;;
77984;SDS011;67177;47.240;-1.546;2023-04-24T15:28:26;5.05;;;1.50;;
77984;SDS011;67177;47.240;-1.546;2023-04-24T15:30:51;5.25;;;1.45;;
77984;SDS011;67177;47.240;-1.546;2023-04-24T15:33:17;6.93;;;1.50;;
77984;SDS011;67177;47.240;-1.546;2023-04-24T15:35:42;8.05;;;1.73;;
77984;SDS011;67177;47.240;-1.546;2023-04-24T15:38:08;7.03;;;1.83;;
77984;SDS011;67177;47.240;-1.546;2023-04-24T15:40:34;4.00;;;1.33;;
77984;SDS011;67177;47.240;-1.546;2023-04-24T15:43:00;5.40;;;1.30;;
77984;SDS011;67177;47.240;-1.546;2023-04-24T15:45:25;5.27;;;1.20;;
77984;SDS011;67177;47.240;-1.546;2023-04-24T15:47:51;6.40;;;1.60;;
77984;SDS011;67177;47.240;-1.546;2023-04-24T15:50:17;5.83;;;1.67;;
77984;SDS011;67177;47.240;-1.546;2023-04-24T15:52:43;4.85;;;1.67;;
77984;SDS011;67177;47.240;-1.546;2023-04-24T15:55:09;5.78;;;1.60;;
77984;SDS011;67177;47.240;-1.546;2023-04-24T15:57:35;7.07;;;1.30;;
77984;SDS011;67177;47.240;-1.546;2023-04-24T16:00:01;4.88;;;1.45;;
77984;SDS011;67177;47.240;-1.546;2023-04-24T16:02:31;5.53;;;1.40;;
77984;SDS011;67177;47.240;-1.546;2023-04-24T16:04:56;5.77;;;1.70;;
77984;SDS011;67177;47.240;-1.546;2023-04-24T16:07:22;5.28;;;1.60;;
77984;SDS011;67177;47.240;-1.546;2023-04-24T16:09:48;5.90;;;1.27;;
77984;SDS011;67177;47.240;-1.546;2023-04-24T16:12:13;5.93;;;1.40;;
77984;SDS011;67177;47.240;-1.546;2023-04-24T16:14:39;6.17;;;1.40;;
77984;SDS011;67177;47.240;-1.546;2023-04-24T16:17:05;9.05;;;1.67;;
77984;SDS011;67177;47.240;-1.546;2023-04-24T16:19:31;7.03;;;1.27;;
77984;SDS011;67177;47.240;-1.546;2023-04-24T16:22:00;4.93;;;1.50;;
77984;SDS011;67177;47.240;-1.546;2023-04-24T16:24:27;5.53;;;1.50;;
77984;SDS011;67177;47.240;-1.546;2023-04-24T16:26:54;4.82;;;1.40;;
77984;SDS011;67177;47.240;-1.546;2023-04-24T16:29:19;6.80;;;1.30;;
77984;SDS011;67177;47.240;-1.546;2023-04-24T16:31:45;6.18;;;1.58;;
77984;SDS011;67177;47.240;-1.546;2023-04-24T16:34:11;5.80;;;1.30;;
77984;SDS011;67177;47.240;-1.546;2023-04-24T16:36:37;5.57;;;1.30;;
77984;SDS011;67177;47.240;-1.546;2023-04-24T16:39:02;5.93;;;1.30;;
77984;SDS011;67177;47.240;-1.546;2023-04-24T16:41:29;6.55;;;1.33;;
77984;SDS011;67177;47.240;-1.546;2023-04-24T16:43:55;5.53;;;1.58;;
77984;SDS011;67177;47.240;-1.546;2023-04-24T16:46:21;4.53;;;1.20;;
77984;SDS011;67177;47.240;-1.546;2023-04-24T16:48:47;5.38;;;1.48;;
77984;SDS011;67177;47.240;-1.546;2023-04-24T16:51:13;4.40;;;1.20;;
77984;SDS011;67177;47.240;-1.546;2023-04-24T16:53:39;6.50;;;1.43;;
77984;SDS011;67177;47.240;-1.546;2023-04-24T16:56:04;4.05;;;1.25;;
77984;SDS011;67177;47.240;-1.546;2023-04-24T16:58:30;6.07;;;1.37;;
77984;SDS011;67177;47.240;-1.546;2023-04-24T17:00:56;4.82;;;1.42;;
77984;SDS011;67177;47.240;-1.546;2023-04-24T17:03:22;6.97;;;1.60;;
77984;SDS011;67177;47.240;-1.546;2023-04-24T17:05:49;7.95;;;1.30;;
77984;SDS011;67177;47.240;-1.546;2023-04-24T17:08:15;6.22;;;1.30;;
77984;SDS011;67177;47.240;-1.546;2023-04-24T17:10:40;4.68;;;1.20;;
77984;SDS011;67177;47.240;-1.546;2023-04-24T17:13:06;5.67;;;1.50;;
77984;SDS011;67177;47.240;-1.546;2023-04-24T17:15:32;6.22;;;1.50;;
77984;SDS011;67177;47.240;-1.546;2023-04-24T17:17:59;7.15;;;1.40;;
77984;SDS011;67177;47.240;-1.546;2023-04-24T17:20:25;5.87;;;1.37;;
77984;SDS011;67177;47.240;-1.546;2023-04-24T17:22:51;5.55;;;1.33;;
77984;SDS011;67177;47.240;-1.546;2023-04-24T17:25:17;6.43;;;1.30;;
77984;SDS011;67177;47.240;-1.546;2023-04-24T17:27:43;4.70;;;1.20;;
77984;SDS011;67177;47.240;-1.546;2023-04-24T17:30:09;5.63;;;1.30;;
77984;SDS011;67177;47.240;-1.546;2023-04-24T17:32:36;4.20;;;1.20;;
77984;SDS011;67177;47.240;-1.546;2023-04-24T17:35:01;6.45;;;1.40;;
77984;SDS011;67177;47.240;-1.546;2023-04-24T17:37:27;5.72;;;1.40;;
77984;SDS011;67177;47.240;-1.546;2023-04-24T17:39:53;5.63;;;1.47;;
77984;SDS011;67177;47.240;-1.546;2023-04-24T17:42:19;6.53;;;1.20;;
77984;SDS011;67177;47.240;-1.546;2023-04-24T17:44:44;4.03;;;1.30;;
77984;SDS011;67177;47.240;-1.546;2023-04-24T17:47:11;5.95;;;1.38;;
77984;SDS011;67177;47.240;-1.546;2023-04-24T17:49:37;5.63;;;1.60;;
77984;SDS011;67177;47.240;-1.546;2023-04-24T17:52:04;5.10;;;1.20;;
77984;SDS011;67177;47.240;-1.546;2023-04-24T17:54:30;4.88;;;1.40;;
77984;SDS011;67177;47.240;-1.546;2023-04-24T17:56:55;3.80;;;1.20;;
77984;SDS011;67177;47.240;-1.546;2023-04-24T17:59:21;5.43;;;1.50;;
77984;SDS011;67177;47.240;-1.546;2023-04-24T18:01:48;5.47;;;1.50;;
77984;SDS011;67177;47.240;-1.546;2023-04-24T18:04:14;6.07;;;1.50;;
77984;SDS011;67177;47.240;-1.546;2023-04-24T18:06:40;5.63;;;1.30;;
77984;SDS011;67177;47.240;-1.546;2023-04-24T18:09:06;4.65;;;1.40;;
77984;SDS011;67177;47.240;-1.546;2023-04-24T18:11:32;5.73;;;1.47;;
77984;SDS011;67177;47.240;-1.546;2023-04-24T18:13:58;5.25;;;1.20;;
77984;SDS011;67177;47.240;-1.546;2023-04-24T18:16:24;5.32;;;1.33;;
77984;SDS011;67177;47.240;-1.546;2023-04-24T18:18:50;4.80;;;1.20;;
77984;SDS011;67177;47.240;-1.546;2023-04-24T18:21:16;4.38;;;1.27;;
77984;SDS011;67177;47.240;-1.546;2023-04-24T18:23:41;4.37;;;1.30;;
77984;SDS011;67177;47.240;-1.546;2023-04-24T18:26:07;4.97;;;1.00;;
77984;SDS011;67177;47.240;-1.546;2023-04-24T18:28:33;6.20;;;1.33;;
77984;SDS011;67177;47.240;-1.546;2023-04-24T18:30:59;4.88;;;1.20;;
77984;SDS011;67177;47.240;-1.546;2023-04-24T18:33:26;6.77;;;1.40;;
77984;SDS011;67177;47.240;-1.546;2023-04-24T18:35:51;5.20;;;1.55;;
77984;SDS011;67177;47.240;-1.546;2023-04-24T18:38:17;6.30;;;1.40;;
77984;SDS011;67177;47.240;-1.546;2023-04-24T18:40:43;4.88;;;1.25;;
77984;SDS011;67177;47.240;-1.546;2023-04-24T18:43:08;5.20;;;1.20;;
77984;SDS011;67177;47.240;-1.546;2023-04-24T18:45:34;6.68;;;1.40;;
77984;SDS011;67177;47.240;-1.546;2023-04-24T18:48:00;4.47;;;1.20;;
77984;SDS011;67177;47.240;-1.546;2023-04-24T18:50:27;6.47;;;1.20;;
77984;SDS011;67177;47.240;-1.546;2023-04-24T18:52:55;5.03;;;1.25;;
77984;SDS011;67177;47.240;-1.546;2023-04-24T18:55:22;6.20;;;1.20;;
77984;SDS011;67177;47.240;-1.546;2023-04-24T18:57:48;5.87;;;1.40;;
77984;SDS011;67177;47.240;-1.546;2023-04-24T19:00:13;5.35;;;1.20;;
77984;SDS011;67177;47.240;-1.546;2023-04-24T19:02:39;4.90;;;1.20;;
77984;SDS011;67177;47.240;-1.546;2023-04-24T19:05:05;5.93;;;1.27;;
77984;SDS011;67177;47.240;-1.546;2023-04-24T19:07:31;5.73;;;1.20;;
77984;SDS011;67177;47.240;-1.546;2023-04-24T19:09:57;4.78;;;1.45;;
77984;SDS011;67177;47.240;-1.546;2023-04-24T19:12:22;4.17;;;1.30;;
77984;SDS011;67177;47.240;-1.546;2023-04-24T19:14:48;6.03;;;1.48;;
77984;SDS011;67177;47.240;-1.546;2023-04-24T19:17:15;5.38;;;1.30;;
77984;SDS011;67177;47.240;-1.546;2023-04-24T19:19:47;8.23;;;1.47;;
77984;SDS011;67177;47.240;-1.546;2023-04-24T19:22:12;5.20;;;1.30;;
77984;SDS011;67177;47.240;-1.546;2023-04-24T19:24:38;4.53;;;1.33;;
77984;SDS011;67177;47.240;-1.546;2023-04-24T19:27:04;6.63;;;1.40;;
77984;SDS011;67177;47.240;-1.546;2023-04-24T19:29:30;6.97;;;1.40;;
77984;SDS011;67177;47.240;-1.546;2023-04-24T19:31:55;5.57;;;1.50;;
77984;SDS011;67177;47.240;-1.546;2023-04-24T19:34:22;5.22;;;1.80;;
77984;SDS011;67177;47.240;-1.546;2023-04-24T19:36:48;5.60;;;1.60;;
77984;SDS011;67177;47.240;-1.546;2023-04-24T19:39:14;4.50;;;1.30;;
77984;SDS011;67177;47.240;-1.546;2023-04-24T19:41:40;5.07;;;1.40;;
77984;SDS011;67177;47.240;-1.546;2023-04-24T19:44:06;4.53;;;1.10;;
77984;SDS011;67177;47.240;-1.546;2023-04-24T19:46:31;4.22;;;1.35;;
77984;SDS011;67177;47.240;-1.546;2023-04-24T19:48:57;5.72;;;1.60;;
77984;SDS011;67177;47.240;-1.546;2023-04-24T19:51:23;4.67;;;1.30;;
77984;SDS011;67177;47.240;-1.546;2023-04-24T19:53:48;6.32;;;1.60;;
77984;SDS011;67177;47.240;-1.546;2023-04-24T19:56:14;4.90;;;1.37;;
77984;SDS011;67177;47.240;-1.546;2023-04-24T19:58:40;5.50;;;1.30;;
77984;SDS011;67177;47.240;-1.546;2023-04-24T20:01:06;4.50;;;1.40;;
77984;SDS011;67177;47.240;-1.546;2023-04-24T20:03:31;4.88;;;1.33;;
77984;SDS011;67177;47.240;-1.546;2023-04-24T20:05:57;5.73;;;1.30;;
77984;SDS011;67177;47.240;-1.546;2023-04-24T20:08:22;4.53;;;1.20;;
77984;SDS011;67177;47.240;-1.546;2023-04-24T20:10:48;3.45;;;1.10;;
77984;SDS011;67177;47.240;-1.546;2023-04-24T20:13:14;3.85;;;1.10;;
77984;SDS011;67177;47.240;-1.546;2023-04-24T20:15:40;3.83;;;1.13;;
77984;SDS011;67177;47.240;-1.546;2023-04-24T20:18:06;3.70;;;1.10;;
77984;SDS011;67177;47.240;-1.546;2023-04-24T20:20:31;5.43;;;1.27;;
77984;SDS011;67177;47.240;-1.546;2023-04-24T20:22:58;4.65;;;1.17;;
77984;SDS011;67177;47.240;-1.546;2023-04-24T20:25:24;3.73;;;1.20;;
77984;SDS011;67177;47.240;-1.546;2023-04-24T20:27:50;3.85;;;1.00;;
77984;SDS011;67177;47.240;-1.546;2023-04-24T20:30:16;4.20;;;1.27;;
77984;SDS011;67177;47.240;-1.546;2023-04-24T20:32:42;4.10;;;1.30;;
77984;SDS011;67177;47.240;-1.546;2023-04-24T20:35:08;4.67;;;1.40;;
77984;SDS011;67177;47.240;-1.546;2023-04-24T20:37:34;4.30;;;1.20;;
77984;SDS011;67177;47.240;-1.546;2023-04-24T20:40:00;3.92;;;1.10;;
77984;SDS011;67177;47.240;-1.546;2023-04-24T20:42:29;4.25;;;1.30;;
77984;SDS011;67177;47.240;-1.546;2023-04-24T20:44:58;4.60;;;1.33;;
77984;SDS011;67177;47.240;-1.546;2023-04-24T20:47:24;4.15;;;1.13;;
77984;SDS011;67177;47.240;-1.546;2023-04-24T20:49:50;4.18;;;1.00;;
77984;SDS011;67177;47.240;-1.546;2023-04-24T20:52:16;5.27;;;1.00;;
77984;SDS011;67177;47.240;-1.546;2023-04-24T20:54:42;4.60;;;1.30;;
77984;SDS011;67177;47.240;-1.546;2023-04-24T20:57:08;5.72;;;1.35;;
77984;SDS011;67177;47.240;-1.546;2023-04-24T20:59:34;4.23;;;1.40;;
77984;SDS011;67177;47.240;-1.546;2023-04-24T21:01:59;5.05;;;1.40;;
77984;SDS011;67177;47.240;-1.546;2023-04-24T21:04:25;4.87;;;1.47;;
77984;SDS011;67177;47.240;-1.546;2023-04-24T21:06:50;5.75;;;1.40;;
77984;SDS011;67177;47.240;-1.546;2023-04-24T21:09:16;4.95;;;1.40;;
77984;SDS011;67177;47.240;-1.546;2023-04-24T21:11:42;5.30;;;1.40;;
77984;SDS011;67177;47.240;-1.546;2023-04-24T21:14:07;3.97;;;1.17;;
77984;SDS011;67177;47.240;-1.546;2023-04-24T21:16:34;4.82;;;1.58;;
77984;SDS011;67177;47.240;-1.546;2023-04-24T21:19:00;4.93;;;1.70;;
77984;SDS011;67177;47.240;-1.546;2023-04-24T21:21:26;4.82;;;1.42;;
77984;SDS011;67177;47.240;-1.546;2023-04-24T21:23:51;4.63;;;1.30;;
77984;SDS011;67177;47.240;-1.546;2023-04-24T21:26:17;4.57;;;1.33;;
77984;SDS011;67177;47.240;-1.546;2023-04-24T21:28:43;4.83;;;1.30;;
77984;SDS011;67177;47.240;-1.546;2023-04-24T21:31:08;5.53;;;1.20;;
77984;SDS011;67177;47.240;-1.546;2023-04-24T21:33:34;4.57;;;1.20;;
77984;SDS011;67177;47.240;-1.546;2023-04-24T21:36:00;5.00;;;1.15;;
77984;SDS011;67177;47.240;-1.546;2023-04-24T21:38:25;4.33;;;1.30;;
77984;SDS011;67177;47.240;-1.546;2023-04-24T21:40:51;3.87;;;1.10;;
77984;SDS011;67177;47.240;-1.546;2023-04-24T21:43:17;5.63;;;1.20;;